Terminal Aerodrome Forecast
Issued by NWS

Home | Current Version | Previous Version | Text Only | Print | Product List | Glossary On
Versions: 1 2 3 4 5 6 7 8 9 10 11 12 13 14 15 16 17
000
FTUS45 KGJT 230706 AAA
TAFRIL
TAF AMD
KRIL 230706Z 2307/2406 20010G18KT P6SM VCSH SCT070 OVC100
      TEMPO 2307/2310 20020G30KT P6SM BKN070
     FM231200 25008KT P6SM VCSH BKN060 OVC100
     FM231800 27010G20KT P6SM VCSH OVC060
     FM240000 30010G20KT 6SM -SHRA OVC060
     FM240500 29008KT P6SM VCSH OVC060=

USA.gov is the U.S. government's official web portal to all federal, state and local government web resources and services.